createdAt,value
2016-05-24T00:00:06.901Z,0
2016-05-24T00:01:06.716Z,0
2016-05-24T00:02:06.578Z,0
2016-05-24T00:03:06.863Z,0
2016-05-24T00:04:06.818Z,0
2016-05-24T00:05:06.665Z,0
2016-05-24T00:06:06.792Z,0
2016-05-24T00:07:06.779Z,0
2016-05-24T00:08:06.766Z,0
2016-05-24T00:09:06.597Z,0
2016-05-24T00:10:06.584Z,0
2016-05-24T00:11:06.712Z,0
2016-05-24T00:12:06.683Z,0
2016-05-24T00:13:06.702Z,0
2016-05-24T00:14:06.517Z,0
2016-05-24T00:15:06.707Z,0
2016-05-24T00:16:06.631Z,0
2016-05-24T00:17:06.603Z,0
2016-05-24T00:18:06.575Z,0
2016-05-24T00:19:06.405Z,0
2016-05-24T00:20:06.564Z,0
2016-05-24T00:21:06.395Z,0
2016-05-24T00:22:06.523Z,0
2016-05-24T00:23:06.400Z,0
2016-05-24T00:24:06.482Z,0
2016-05-24T00:25:06.484Z,0
2016-05-24T00:26:06.315Z,0
2016-05-24T00:27:06.442Z,0
2016-05-24T00:28:06.430Z,0
2016-05-24T00:29:06.260Z,0
2016-05-24T00:30:06.482Z,0
2016-05-24T00:31:06.359Z,0
2016-05-24T00:32:06.207Z,0
2016-05-24T00:33:06.349Z,0
2016-05-24T00:34:06.321Z,0
2016-05-24T00:35:06.151Z,0
2016-05-24T00:36:06.279Z,0
2016-05-24T00:37:06.266Z,0
2016-05-24T00:38:06.097Z,0
2016-05-24T00:39:06.240Z,0
2016-05-24T00:40:06.071Z,0
2016-05-24T00:41:06.184Z,0
2016-05-24T00:42:06.061Z,0
2016-05-24T00:43:06.173Z,0
2016-05-24T00:44:05.988Z,0
2016-05-24T00:45:06.600Z,0
2016-05-24T00:46:06.134Z,0
2016-05-24T00:47:06.106Z,0
2016-05-24T00:48:05.936Z,0
2016-05-24T00:49:05.955Z,0
2016-05-24T00:50:06.036Z,0
2016-05-24T00:51:06.039Z,0
2016-05-24T00:52:06.041Z,0
2016-05-24T00:53:06.013Z,0
2016-05-24T00:54:06.015Z,0
2016-05-24T00:55:05.815Z,0
2016-05-24T00:56:05.974Z,0
2016-05-24T00:57:05.633Z,0
2016-05-24T00:58:05.932Z,0
2016-05-24T00:59:05.747Z,0
2016-05-24T01:00:07.187Z,0
2016-05-24T01:01:05.873Z,0
2016-05-24T01:02:05.888Z,0
2016-05-24T01:03:05.904Z,0
2016-05-24T01:04:05.779Z,0
2016-05-24T01:05:05.762Z,0
2016-05-24T01:06:05.786Z,0
2016-05-24T01:07:05.768Z,0
2016-05-24T01:08:05.765Z,0
2016-05-24T01:09:05.747Z,0
2016-05-24T01:10:05.588Z,0
2016-05-24T01:11:05.895Z,0
2016-05-24T01:12:05.729Z,0
2016-05-24T01:13:05.705Z,0
2016-05-24T01:14:05.852Z,0
2016-05-24T01:15:05.718Z,0
2016-05-24T01:16:05.834Z,0
2016-05-24T01:17:05.821Z,0
2016-05-24T01:18:05.794Z,0
2016-05-24T01:19:05.798Z,0
2016-05-24T01:20:05.785Z,0
2016-05-24T01:21:05.602Z,0
2016-05-24T01:22:05.746Z,0
2016-05-24T01:23:05.717Z,0
2016-05-24T01:24:05.690Z,0
2016-05-24T01:25:05.676Z,0
2016-05-24T01:26:05.664Z,0
2016-05-24T01:27:05.666Z,0
2016-05-24T01:28:05.639Z,0
2016-05-24T01:29:05.626Z,0
2016-05-24T01:30:06.317Z,0
2016-05-24T01:31:05.585Z,0
2016-05-24T01:32:05.589Z,0
2016-05-24T01:33:05.545Z,0
2016-05-24T01:34:05.547Z,0
2016-05-24T01:35:05.377Z,0
2016-05-24T01:36:05.489Z,0
2016-05-24T01:37:05.476Z,0
2016-05-24T01:38:05.480Z,0
2016-05-24T01:39:05.467Z,0
2016-05-24T01:40:05.282Z,0
2016-05-24T01:41:05.269Z,0
2016-05-24T01:42:05.240Z,0
2016-05-24T01:43:05.383Z,0
2016-05-24T01:44:05.370Z,0
2016-05-24T01:45:05.389Z,0
2016-05-24T01:46:05.173Z,0
2016-05-24T01:47:05.332Z,0
2016-05-24T01:48:05.162Z,0
2016-05-24T01:49:05.290Z,0
2016-05-24T01:50:05.121Z,0
2016-05-24T01:51:05.124Z,0
2016-05-24T01:52:05.064Z,0
2016-05-24T01:53:05.223Z,0
2016-05-24T01:54:05.053Z,0
2016-05-24T01:55:04.884Z,0
2016-05-24T01:56:05.012Z,0
2016-05-24T01:57:04.843Z,0
2016-05-24T01:58:05.126Z,0
2016-05-24T01:59:05.129Z,0
2016-05-24T02:00:05.132Z,0
2016-05-24T02:01:05.089Z,0
2016-05-24T02:02:05.091Z,0
2016-05-24T02:03:05.031Z,0
2016-05-24T02:04:04.877Z,0
2016-05-24T02:05:05.005Z,0
2016-05-24T02:06:04.851Z,0
2016-05-24T02:07:04.839Z,0
2016-05-24T02:08:04.967Z,0
2016-05-24T02:09:04.938Z,0
2016-05-24T02:10:04.768Z,0
2016-05-24T02:11:04.927Z,0
2016-05-24T02:12:04.883Z,0
2016-05-24T02:13:04.574Z,0
2016-05-24T02:14:04.702Z,0
2016-05-24T02:15:04.876Z,0
2016-05-24T02:16:04.832Z,0
2016-05-24T02:17:04.802Z,0
2016-05-24T02:18:04.805Z,0
2016-05-24T02:19:04.777Z,0
2016-05-24T02:20:04.764Z,0
2016-05-24T02:21:04.736Z,0
2016-05-24T02:22:04.754Z,0
2016-05-24T02:23:04.709Z,0
2016-05-24T02:24:04.368Z,0
2016-05-24T02:25:04.356Z,0
2016-05-24T02:26:04.656Z,0
2016-05-24T02:27:04.658Z,0
2016-05-24T02:28:04.645Z,0
2016-05-24T02:29:04.445Z,0
2016-05-24T02:30:04.729Z,0
2016-05-24T02:31:04.559Z,0
2016-05-24T02:32:04.390Z,0
2016-05-24T02:33:04.392Z,0
2016-05-24T02:34:04.348Z,0
2016-05-24T02:35:04.507Z,0
2016-05-24T02:36:04.511Z,0
2016-05-24T02:37:04.450Z,0
2016-05-24T02:38:04.469Z,0
2016-05-24T02:39:04.440Z,0
2016-05-24T02:40:04.443Z,0
2016-05-24T02:41:04.414Z,0
2016-05-24T02:42:04.402Z,0
2016-05-24T02:43:04.373Z,0
2016-05-24T02:44:04.344Z,0
2016-05-24T02:45:06.221Z,0
2016-05-24T02:46:04.240Z,0
2016-05-24T02:47:04.352Z,0
2016-05-24T02:48:04.277Z,0
2016-05-24T02:49:04.108Z,0
2016-05-24T02:50:04.251Z,0
2016-05-24T02:51:04.316Z,0
2016-05-24T02:52:04.225Z,0
2016-05-24T02:53:04.056Z,0
2016-05-24T02:54:04.152Z,0
2016-05-24T02:55:04.280Z,0
2016-05-24T02:56:04.017Z,0
2016-05-24T02:57:04.129Z,0
2016-05-24T02:58:03.945Z,0
2016-05-24T02:59:04.104Z,0
2016-05-24T03:00:04.418Z,0
2016-05-24T03:01:04.062Z,0
2016-05-24T03:02:03.892Z,0
2016-05-24T03:03:03.864Z,0
2016-05-24T03:04:03.726Z,0
2016-05-24T03:05:04.011Z,0
2016-05-24T03:06:03.966Z,0
2016-05-24T03:07:03.969Z,0
2016-05-24T03:08:03.800Z,0
2016-05-24T03:09:03.942Z,0
2016-05-24T03:10:03.789Z,0
2016-05-24T03:11:03.917Z,0
2016-05-24T03:12:03.716Z,0
2016-05-24T03:13:03.719Z,0
2016-05-24T03:14:03.846Z,0
2016-05-24T03:15:03.849Z,0
2016-05-24T03:16:03.805Z,0
2016-05-24T03:17:03.793Z,0
2016-05-24T03:18:03.780Z,0
2016-05-24T03:19:03.766Z,0
2016-05-24T03:20:03.721Z,0
2016-05-24T03:21:03.428Z,0
2016-05-24T03:22:03.712Z,0
2016-05-24T03:23:03.684Z,0
2016-05-24T03:24:03.655Z,0
2016-05-24T03:25:03.360Z,0
2016-05-24T03:26:03.660Z,0
2016-05-24T03:27:03.632Z,0
2016-05-24T03:28:03.603Z,0
2016-05-24T03:29:03.606Z,0
2016-05-24T03:30:03.421Z,0
2016-05-24T03:31:03.580Z,0
2016-05-24T03:32:03.395Z,0
2016-05-24T03:33:03.507Z,0
2016-05-24T03:34:03.494Z,0
2016-05-24T03:35:03.497Z,0
2016-05-24T03:36:03.453Z,0
2016-05-24T03:37:03.439Z,0
2016-05-24T03:38:03.271Z,0
2016-05-24T03:39:03.258Z,0
2016-05-24T03:40:03.417Z,0
2016-05-24T03:41:03.232Z,0
2016-05-24T03:42:03.360Z,0
2016-05-24T03:43:03.346Z,0
2016-05-24T03:44:03.350Z,0
2016-05-24T03:45:03.836Z,0
2016-05-24T03:46:03.292Z,0
2016-05-24T03:47:03.138Z,0
2016-05-24T03:48:03.282Z,0
2016-05-24T03:49:03.096Z,0
2016-05-24T03:50:03.225Z,0
2016-05-24T03:51:03.040Z,0
2016-05-24T03:52:03.043Z,0
2016-05-24T03:53:03.185Z,0
2016-05-24T03:54:03.158Z,0
2016-05-24T03:55:03.020Z,0
2016-05-24T03:56:02.976Z,0
2016-05-24T03:57:03.103Z,0
2016-05-24T03:58:03.090Z,0
2016-05-24T03:59:03.077Z,0
2016-05-24T04:00:03.329Z,0
2016-05-24T04:01:02.879Z,0
2016-05-24T04:02:03.039Z,0
2016-05-24T04:03:02.994Z,0
2016-05-24T04:04:02.825Z,0
2016-05-24T04:05:02.984Z,0
2016-05-24T04:06:02.800Z,0
2016-05-24T04:07:02.802Z,0
2016-05-24T04:08:02.930Z,0
2016-05-24T04:09:02.916Z,0
2016-05-24T04:10:02.872Z,0
2016-05-24T04:11:02.563Z,0
2016-05-24T04:12:02.722Z,0
2016-05-24T04:13:02.677Z,0
2016-05-24T04:14:02.836Z,0
2016-05-24T04:15:03.729Z,0
2016-05-24T04:16:02.779Z,0
2016-05-24T04:17:02.626Z,0
2016-05-24T04:18:02.753Z,0
2016-05-24T04:19:02.444Z,0
2016-05-24T04:20:02.571Z,0
2016-05-24T04:21:02.714Z,0
2016-05-24T04:22:02.686Z,0
2016-05-24T04:23:02.673Z,0
2016-05-24T04:24:02.644Z,0
2016-05-24T04:25:03.179Z,0
2016-05-24T04:26:02.478Z,0
2016-05-24T04:27:02.449Z,0
2016-05-24T04:28:02.436Z,0
2016-05-24T04:29:02.252Z,0
2016-05-24T04:30:02.410Z,0
2016-05-24T04:31:02.538Z,0
2016-05-24T04:32:02.197Z,0
2016-05-24T04:33:02.497Z,0
2016-05-24T04:34:02.484Z,0
2016-05-24T04:35:02.471Z,0
2016-05-24T04:36:02.458Z,0
2016-05-24T04:37:02.445Z,0
2016-05-24T04:38:02.400Z,0
2016-05-24T04:39:02.403Z,0
2016-05-24T04:40:02.203Z,0
2016-05-24T04:41:02.362Z,0
2016-05-24T04:42:02.349Z,0
2016-05-24T04:43:02.180Z,0
2016-05-24T04:44:02.151Z,0
2016-05-24T04:45:02.186Z,0
2016-05-24T04:46:02.266Z,0
2016-05-24T04:47:02.269Z,0
2016-05-24T04:48:02.255Z,0
2016-05-24T04:49:02.071Z,0
2016-05-24T04:50:02.245Z,0
2016-05-24T04:51:02.061Z,0
2016-05-24T04:52:02.189Z,0
2016-05-24T04:53:02.176Z,0
2016-05-24T04:54:02.146Z,0
2016-05-24T04:55:02.118Z,0
2016-05-24T04:56:01.949Z,0
2016-05-24T04:57:02.108Z,0
2016-05-24T04:58:02.080Z,0
2016-05-24T04:59:01.910Z,0
2016-05-24T05:00:02.131Z,0
2016-05-24T05:01:02.026Z,0
2016-05-24T05:02:02.012Z,0
2016-05-24T05:03:01.687Z,0
2016-05-24T05:04:01.971Z,0
2016-05-24T05:05:01.973Z,0
2016-05-24T05:06:01.945Z,0
2016-05-24T05:07:01.947Z,0
2016-05-24T05:08:01.903Z,0
2016-05-24T05:09:01.890Z,0
2016-05-24T05:10:01.862Z,0
2016-05-24T05:11:01.849Z,0
2016-05-24T05:12:01.539Z,0
2016-05-24T05:13:01.683Z,0
2016-05-24T05:14:01.342Z,0
2016-05-24T05:15:02.031Z,0
2016-05-24T05:16:01.784Z,0
2016-05-24T05:17:01.599Z,0
2016-05-24T05:18:01.743Z,0
2016-05-24T05:19:01.402Z,0
2016-05-24T05:20:01.702Z,0
2016-05-24T05:21:01.704Z,0
2016-05-24T05:22:01.675Z,0
2016-05-24T05:23:01.507Z,0
2016-05-24T05:24:01.650Z,0
2016-05-24T05:25:00.995Z,0
2016-05-24T05:26:01.311Z,0
2016-05-24T05:27:01.283Z,0
2016-05-24T05:28:01.426Z,0
2016-05-24T05:29:01.397Z,0
2016-05-24T05:30:01.712Z,0
2016-05-24T05:31:01.574Z,0
2016-05-24T05:32:01.515Z,0
2016-05-24T05:33:01.329Z,0
2016-05-24T05:34:01.490Z,5
2016-05-24T05:35:01.320Z,5
2016-05-24T05:36:01.447Z,5
2016-05-24T05:37:01.279Z,5
2016-05-24T05:38:01.437Z,5
2016-05-24T05:39:01.392Z,5
2016-05-24T05:40:01.364Z,10
2016-05-24T05:41:01.195Z,10
2016-05-24T05:42:01.183Z,10
2016-05-24T05:43:01.153Z,10
2016-05-24T05:44:01.156Z,10
2016-05-24T05:45:01.362Z,10
2016-05-24T05:46:01.505Z,10
2016-05-24T05:47:01.102Z,10
2016-05-24T05:48:01.244Z,10
2016-05-24T05:49:01.232Z,10
2016-05-24T05:50:01.205Z,10
2016-05-24T05:51:01.191Z,15
2016-05-24T05:52:01.163Z,10
2016-05-24T05:53:01.149Z,15
2016-05-24T05:54:01.136Z,15
2016-05-24T05:55:01.138Z,10
2016-05-24T05:56:01.110Z,15
2016-05-24T05:57:01.098Z,20
2016-05-24T05:58:00.913Z,20
2016-05-24T05:59:00.915Z,20
2016-05-24T06:00:02.012Z,20
2016-05-24T06:01:00.859Z,20
2016-05-24T06:02:00.876Z,20
2016-05-24T06:03:01.004Z,15
2016-05-24T06:04:00.975Z,15
2016-05-24T06:05:00.979Z,15
2016-05-24T06:06:00.950Z,15
2016-05-24T06:07:00.937Z,10
2016-05-24T06:08:00.908Z,10
2016-05-24T06:09:00.723Z,10
2016-05-24T06:10:00.866Z,5
2016-05-24T06:11:02.181Z,10
2016-05-24T06:12:00.685Z,10
2016-05-24T06:13:02.297Z,15
2016-05-24T06:14:09.283Z,15
2016-05-24T06:15:01.131Z,25
2016-05-24T06:16:01.055Z,30
2016-05-24T06:17:01.447Z,30
2016-05-24T06:18:01.279Z,30
2016-05-24T06:19:00.719Z,30
2016-05-24T06:20:00.706Z,25
2016-05-24T06:21:00.694Z,20
2016-05-24T06:22:00.524Z,20
2016-05-24T06:23:00.511Z,20
2016-05-24T06:24:00.638Z,15
2016-05-24T06:25:00.469Z,15
2016-05-24T06:26:00.597Z,15
2016-05-24T06:27:00.429Z,15
2016-05-24T06:28:00.571Z,15
2016-05-24T06:29:00.543Z,15
2016-05-24T06:30:00.655Z,15
2016-05-24T06:31:00.360Z,15
2016-05-24T06:32:00.520Z,20
2016-05-24T06:33:00.491Z,20
2016-05-24T06:34:00.323Z,15
2016-05-24T06:35:00.465Z,15
2016-05-24T06:36:00.453Z,15
2016-05-24T06:37:00.284Z,15
2016-05-24T06:38:00.395Z,15
2016-05-24T06:39:00.242Z,10
2016-05-24T06:40:00.385Z,10
2016-05-24T06:41:00.357Z,10
2016-05-24T06:42:00.172Z,10
2016-05-24T06:43:00.189Z,10
2016-05-24T06:44:00.302Z,10
2016-05-24T06:45:01.133Z,10
2016-05-24T06:46:00.448Z,15
2016-05-24T06:46:59.967Z,15
2016-05-24T06:48:00.078Z,20
2016-05-24T06:49:00.097Z,20
2016-05-24T06:50:00.225Z,20
2016-05-24T06:51:00.197Z,15
2016-05-24T06:52:00.199Z,15
2016-05-24T06:53:00.170Z,20
2016-05-24T06:54:00.157Z,15
2016-05-24T06:55:00.144Z,20
2016-05-24T06:56:00.132Z,20
2016-05-24T06:56:59.962Z,25
2016-05-24T06:58:00.746Z,30
2016-05-24T06:58:59.921Z,35
2016-05-24T07:00:00.533Z,30
2016-05-24T07:00:59.880Z,25
2016-05-24T07:02:00.038Z,30
2016-05-24T07:02:59.838Z,35
2016-05-24T07:03:59.981Z,35
2016-05-24T07:04:59.968Z,35
2016-05-24T07:05:59.940Z,25
2016-05-24T07:06:59.942Z,25
2016-05-24T07:07:59.914Z,25
2016-05-24T07:08:59.760Z,35
2016-05-24T07:09:59.888Z,45
2016-05-24T07:10:59.718Z,40
2016-05-24T07:11:59.862Z,45
2016-05-24T07:12:59.849Z,35
2016-05-24T07:13:59.821Z,30
2016-05-24T07:14:59.808Z,40
2016-05-24T07:16:00.028Z,35
2016-05-24T07:16:59.656Z,40
2016-05-24T07:17:59.784Z,45
2016-05-24T07:18:59.661Z,35
2016-05-24T07:19:59.711Z,35
2016-05-24T07:20:59.558Z,40
2016-05-24T07:21:59.577Z,30
2016-05-24T07:22:59.688Z,30
2016-05-24T07:23:59.644Z,35
2016-05-24T07:24:59.647Z,40
2016-05-24T07:25:59.572Z,35
2016-05-24T07:26:59.465Z,35
2016-05-24T07:27:59.421Z,35
2016-05-24T07:28:59.564Z,35
2016-05-24T07:29:59.582Z,35
2016-05-24T07:30:59.585Z,35
2016-05-24T07:31:59.618Z,45
2016-05-24T07:32:59.340Z,45
2016-05-24T07:33:59.499Z,45
2016-05-24T07:34:59.455Z,40
2016-05-24T07:35:59.535Z,35
2016-05-24T07:36:59.445Z,35
2016-05-24T07:37:59.260Z,45
2016-05-24T07:38:59.404Z,45
2016-05-24T07:39:59.250Z,40
2016-05-24T07:40:59.362Z,40
2016-05-24T07:41:59.395Z,50
2016-05-24T07:42:59.398Z,55
2016-05-24T07:43:59.323Z,55
2016-05-24T07:44:59.216Z,50
2016-05-24T07:45:59.392Z,45
2016-05-24T07:46:59.253Z,55
2016-05-24T07:48:02.302Z,60
2016-05-24T07:48:58.931Z,50
2016-05-24T07:49:59.323Z,50
2016-05-24T07:50:59.326Z,45
2016-05-24T07:51:59.158Z,45
2016-05-24T07:52:59.175Z,40
2016-05-24T07:53:59.147Z,45
2016-05-24T07:54:58.899Z,35
2016-05-24T07:55:59.105Z,50
2016-05-24T07:56:58.952Z,50
2016-05-24T07:57:59.064Z,40
2016-05-24T07:58:58.910Z,55
2016-05-24T07:59:58.882Z,40
2016-05-24T08:00:59.493Z,35
2016-05-24T08:01:58.980Z,35
2016-05-24T08:02:59.062Z,35
2016-05-24T08:03:59.111Z,35
2016-05-24T08:04:58.818Z,25
2016-05-24T08:05:59.054Z,30
2016-05-24T08:06:58.760Z,35
2016-05-24T08:07:58.590Z,40
2016-05-24T08:08:58.890Z,40
2016-05-24T08:09:58.737Z,30
2016-05-24T08:10:58.849Z,30
2016-05-24T08:11:58.664Z,55
2016-05-24T08:12:58.667Z,90
2016-05-24T08:13:58.654Z,115
2016-05-24T08:14:59.000Z,135
2016-05-24T08:15:58.612Z,145
2016-05-24T08:16:58.850Z,150
2016-05-24T08:17:58.743Z,150
2016-05-24T08:18:58.714Z,130
2016-05-24T08:19:58.747Z,110
2016-05-24T08:20:58.813Z,140
2016-05-24T08:21:58.676Z,145
2016-05-24T08:22:58.522Z,160
2016-05-24T08:23:58.494Z,145
2016-05-24T08:24:58.700Z,165
2016-05-24T08:25:58.670Z,150
2016-05-24T08:26:58.501Z,140
2016-05-24T08:27:58.597Z,140
2016-05-24T08:28:58.585Z,145
2016-05-24T08:29:58.791Z,160
2016-05-24T08:30:59.090Z,135
2016-05-24T08:31:58.608Z,120
2016-05-24T08:32:58.486Z,145
2016-05-24T08:33:58.473Z,130
2016-05-24T08:34:58.132Z,185
2016-05-24T08:36:01.572Z,210
2016-05-24T08:36:58.560Z,190
2016-05-24T08:37:58.437Z,165
2016-05-24T08:38:58.393Z,160
2016-05-24T08:39:58.239Z,180
2016-05-24T08:40:58.289Z,160
2016-05-24T08:41:58.417Z,140
2016-05-24T08:42:58.170Z,125
2016-05-24T08:43:58.313Z,100
2016-05-24T08:44:58.128Z,100
2016-05-24T08:45:58.287Z,130
2016-05-24T08:46:58.086Z,145
2016-05-24T08:47:58.104Z,135
2016-05-24T08:48:58.231Z,150
2016-05-24T08:49:58.063Z,165
2016-05-24T08:50:58.270Z,145
2016-05-24T08:51:58.194Z,145
2016-05-24T08:52:58.149Z,170
2016-05-24T08:53:58.183Z,200
2016-05-24T08:54:58.155Z,245
2016-05-24T08:55:58.516Z,250
2016-05-24T08:56:58.098Z,195
2016-05-24T08:57:57.678Z,170
2016-05-24T08:58:58.056Z,185
2016-05-24T08:59:58.199Z,170
2016-05-24T09:00:58.921Z,180
2016-05-24T09:01:57.892Z,225
2016-05-24T09:02:57.894Z,185
2016-05-24T09:03:58.039Z,145
2016-05-24T09:04:57.900Z,155
2016-05-24T09:05:57.934Z,135
2016-05-24T09:06:57.765Z,140
2016-05-24T09:07:57.908Z,135
2016-05-24T09:08:58.083Z,125
2016-05-24T09:09:57.710Z,110
2016-05-24T09:10:57.541Z,115
2016-05-24T09:11:57.841Z,155
2016-05-24T09:12:57.672Z,140
2016-05-24T09:13:57.784Z,140
2016-05-24T09:14:57.318Z,190
2016-05-24T09:15:59.821Z,130
2016-05-24T09:16:57.589Z,165
2016-05-24T09:17:57.748Z,210
2016-05-24T09:18:57.750Z,215
2016-05-24T09:19:57.581Z,205
2016-05-24T09:20:58.834Z,210
2016-05-24T09:21:57.571Z,240
2016-05-24T09:22:57.495Z,245
2016-05-24T09:23:57.655Z,250
2016-05-24T09:24:57.595Z,275
2016-05-24T09:25:58.098Z,220
2016-05-24T09:26:57.600Z,210
2016-05-24T09:27:57.399Z,205
2016-05-24T09:28:57.497Z,180
2016-05-24T09:29:57.561Z,145
2016-05-24T09:30:59.080Z,150
2016-05-24T09:31:57.505Z,150
2016-05-24T09:32:57.335Z,155
2016-05-24T09:33:57.291Z,155
2016-05-24T09:34:57.450Z,185
2016-05-24T09:35:59.046Z,165
2016-05-24T09:36:57.282Z,140
2016-05-24T09:37:57.443Z,180
2016-05-24T09:38:57.382Z,245
2016-05-24T09:39:57.213Z,235
2016-05-24T09:40:57.357Z,230
2016-05-24T09:41:57.406Z,225
2016-05-24T09:42:57.268Z,210
2016-05-24T09:43:57.380Z,240
2016-05-24T09:44:57.304Z,235
2016-05-24T09:45:58.464Z,295
2016-05-24T09:46:57.262Z,300
2016-05-24T09:47:56.860Z,370
2016-05-24T09:48:57.301Z,410
2016-05-24T09:49:57.255Z,280
2016-05-24T09:50:57.228Z,200
2016-05-24T09:51:57.167Z,290
2016-05-24T09:52:57.186Z,360
2016-05-24T09:53:57.157Z,315
2016-05-24T09:54:57.378Z,325
2016-05-24T09:55:56.991Z,380
2016-05-24T09:56:57.290Z,305
2016-05-24T09:57:57.136Z,340
2016-05-24T09:58:57.327Z,350
2016-05-24T09:59:57.158Z,330
2016-05-24T10:00:57.130Z,300
2016-05-24T10:01:57.147Z,360
2016-05-24T10:02:57.103Z,325
2016-05-24T10:03:57.106Z,300
2016-05-24T10:04:57.015Z,355
2016-05-24T10:05:57.017Z,370
2016-05-24T10:06:57.221Z,330
2016-05-24T10:07:56.840Z,325
2016-05-24T10:08:56.848Z,340
2016-05-24T10:09:56.920Z,355
2016-05-24T10:10:57.101Z,390
2016-05-24T10:11:57.632Z,405
2016-05-24T10:12:58.221Z,345
2016-05-24T10:13:59.716Z,365
2016-05-24T10:14:59.836Z,255
2016-05-24T10:15:58.113Z,275
2016-05-24T10:16:57.074Z,330
2016-05-24T10:17:57.080Z,330
2016-05-24T10:18:57.006Z,405
2016-05-24T10:19:56.793Z,385
2016-05-24T10:20:59.939Z,320
2016-05-24T10:21:57.006Z,450
2016-05-24T10:22:56.885Z,290
2016-05-24T10:23:56.904Z,285
2016-05-24T10:24:56.704Z,350
2016-05-24T10:25:59.802Z,365
2016-05-24T10:26:56.837Z,380
2016-05-24T10:27:56.903Z,265
2016-05-24T10:28:56.843Z,320
2016-05-24T10:29:56.846Z,395
2016-05-24T10:30:56.943Z,355
2016-05-24T10:31:58.884Z,375
2016-05-24T10:32:56.668Z,365
2016-05-24T10:33:56.623Z,310
2016-05-24T10:34:56.563Z,435
2016-05-24T10:35:58.519Z,310
2016-05-24T10:36:59.600Z,330
2016-05-24T10:37:56.728Z,305
2016-05-24T10:38:56.684Z,330
2016-05-24T10:39:56.514Z,385
2016-05-24T10:40:56.486Z,375
2016-05-24T10:41:56.645Z,345
2016-05-24T10:42:56.506Z,360
2016-05-24T10:43:56.603Z,425
2016-05-24T10:44:56.434Z,320
2016-05-24T10:45:56.358Z,315
2016-05-24T10:46:56.642Z,405
2016-05-24T10:47:56.598Z,320
2016-05-24T10:48:56.430Z,390
2016-05-24T10:49:56.213Z,410
2016-05-24T10:50:56.716Z,415
2016-05-24T10:51:58.313Z,365
2016-05-24T10:52:56.361Z,415
2016-05-24T10:53:56.536Z,380
2016-05-24T10:54:56.476Z,395
2016-05-24T10:55:56.135Z,405
2016-05-24T10:56:56.138Z,355
2016-05-24T10:57:56.516Z,290
2016-05-24T10:58:56.081Z,380
2016-05-24T10:59:56.068Z,390
2016-05-24T11:00:56.398Z,340
2016-05-24T11:01:57.324Z,305
2016-05-24T11:02:56.185Z,360
2016-05-24T11:03:56.204Z,440
2016-05-24T11:04:56.316Z,550
2016-05-24T11:05:56.225Z,400
2016-05-24T11:06:58.853Z,430
2016-05-24T11:07:56.324Z,420
2016-05-24T11:08:56.139Z,390
2016-05-24T11:09:56.361Z,375
2016-05-24T11:10:56.223Z,415
2016-05-24T11:11:57.053Z,385
2016-05-24T11:12:56.244Z,290
2016-05-24T11:13:56.058Z,350
2016-05-24T11:14:56.203Z,390
2016-05-24T11:15:55.986Z,445
2016-05-24T11:16:58.207Z,390
2016-05-24T11:17:56.164Z,400
2016-05-24T11:18:56.213Z,385
2016-05-24T11:19:55.841Z,380
2016-05-24T11:20:56.141Z,595
2016-05-24T11:21:58.158Z,505
2016-05-24T11:22:56.114Z,1985
2016-05-24T11:23:56.117Z,2115
2016-05-24T11:24:55.744Z,2250
2016-05-24T11:25:56.044Z,280
2016-05-24T11:26:55.922Z,2185
2016-05-24T11:27:56.112Z,1235
2016-05-24T11:28:56.255Z,1445
2016-05-24T11:29:55.930Z,1615
2016-05-24T11:30:55.918Z,2245
2016-05-24T11:31:55.841Z,1895
2016-05-24T11:32:55.829Z,385
2016-05-24T11:33:55.644Z,435
2016-05-24T11:34:55.960Z,460
2016-05-24T11:35:55.837Z,935
2016-05-24T11:36:56.120Z,1445
2016-05-24T11:37:55.936Z,340
2016-05-24T11:38:55.954Z,1530
2016-05-24T11:39:56.145Z,2190
2016-05-24T11:40:55.944Z,435
2016-05-24T11:41:55.743Z,1555
2016-05-24T11:42:55.575Z,625
2016-05-24T11:43:55.592Z,2045
2016-05-24T11:44:55.580Z,2085
2016-05-24T11:45:56.410Z,700
2016-05-24T11:46:55.881Z,1700
2016-05-24T11:47:55.838Z,965
2016-05-24T11:48:55.903Z,1290
2016-05-24T11:49:55.937Z,1630
2016-05-24T11:50:55.893Z,2125
2016-05-24T11:51:55.832Z,1920
2016-05-24T11:52:56.258Z,1435
2016-05-24T11:53:55.823Z,660
2016-05-24T11:54:55.997Z,1050
2016-05-24T11:55:55.813Z,1140
2016-05-24T11:56:55.862Z,820
2016-05-24T11:57:55.646Z,1555
2016-05-24T11:58:55.461Z,1015
2016-05-24T11:59:55.620Z,1175
2016-05-24T12:00:56.185Z,910
2016-05-24T12:01:55.735Z,925
2016-05-24T12:02:55.753Z,620
2016-05-24T12:03:55.584Z,845
2016-05-24T12:04:55.555Z,630
2016-05-24T12:05:55.574Z,635
2016-05-24T12:06:55.732Z,710
2016-05-24T12:07:55.673Z,725
2016-05-24T12:08:55.926Z,735
2016-05-24T12:09:55.757Z,740
2016-05-24T12:10:55.525Z,705
2016-05-24T12:11:55.699Z,610
2016-05-24T12:12:55.545Z,620
2016-05-24T12:13:55.751Z,605
2016-05-24T12:14:55.879Z,625
2016-05-24T12:15:55.600Z,660
2016-05-24T12:16:55.244Z,700
2016-05-24T12:17:55.637Z,685
2016-05-24T12:18:55.656Z,525
2016-05-24T12:19:55.470Z,545
2016-05-24T12:20:55.363Z,465
2016-05-24T12:21:55.461Z,630
2016-05-24T12:22:55.447Z,620
2016-05-24T12:23:55.872Z,585
2016-05-24T12:24:55.593Z,725
2016-05-24T12:25:55.550Z,635
2016-05-24T12:26:55.411Z,700
2016-05-24T12:27:55.726Z,675
2016-05-24T12:28:55.635Z,620
2016-05-24T12:29:55.591Z,650
2016-05-24T12:30:56.157Z,710
2016-05-24T12:31:55.550Z,390
2016-05-24T12:32:55.552Z,635
2016-05-24T12:33:55.383Z,680
2016-05-24T12:34:55.371Z,690
2016-05-24T12:35:55.530Z,765
2016-05-24T12:36:55.501Z,630
2016-05-24T12:37:55.676Z,695
2016-05-24T12:38:55.459Z,615
2016-05-24T12:39:55.618Z,690
2016-05-24T12:40:55.496Z,720
2016-05-24T12:41:55.451Z,750
2016-05-24T12:42:55.564Z,645
2016-05-24T12:43:55.206Z,760
2016-05-24T12:44:56.772Z,775
2016-05-24T12:45:55.323Z,885
2016-05-24T12:46:55.231Z,910
2016-05-24T12:47:55.514Z,835
2016-05-24T12:48:55.502Z,985
2016-05-24T12:49:56.551Z,1090
2016-05-24T12:50:55.289Z,1390
2016-05-24T12:51:55.261Z,1500
2016-05-24T12:52:55.419Z,2225
2016-05-24T12:53:55.484Z,1210
2016-05-24T12:54:55.269Z,1810
2016-05-24T12:55:55.474Z,2345
2016-05-24T12:56:55.274Z,1075
2016-05-24T12:57:55.494Z,2285
2016-05-24T12:58:55.450Z,1605
2016-05-24T12:59:58.360Z,1660
2016-05-24T13:00:55.440Z,1840
2016-05-24T13:01:55.224Z,1925
2016-05-24T13:02:55.461Z,1540
2016-05-24T13:03:55.323Z,2030
2016-05-24T13:04:55.326Z,1155
2016-05-24T13:05:55.344Z,1995
2016-05-24T13:07:09.207Z,1030
2016-05-24T13:07:55.271Z,1515
2016-05-24T13:08:55.306Z,765
2016-05-24T13:09:56.995Z,1940
2016-05-24T13:10:55.218Z,1085
2016-05-24T13:11:55.173Z,1715
2016-05-24T13:12:55.020Z,1280
2016-05-24T13:13:55.148Z,1250
2016-05-24T13:14:54.993Z,1295
2016-05-24T13:15:55.543Z,1090
2016-05-24T13:16:55.436Z,1115
2016-05-24T13:17:55.111Z,1305
2016-05-24T13:18:55.317Z,1485
2016-05-24T13:19:55.289Z,1155
2016-05-24T13:20:55.134Z,1655
2016-05-24T13:21:55.122Z,1260
2016-05-24T13:22:55.124Z,1365
2016-05-24T13:23:54.924Z,530
2016-05-24T13:24:56.052Z,2120
2016-05-24T13:25:55.054Z,1235
2016-05-24T13:26:55.120Z,700
2016-05-24T13:27:55.108Z,980
2016-05-24T13:28:55.031Z,590
2016-05-24T13:29:55.253Z,1300
2016-05-24T13:30:55.771Z,1660
2016-05-24T13:31:54.914Z,1710
2016-05-24T13:32:55.214Z,1770
2016-05-24T13:33:55.232Z,2350
2016-05-24T13:34:54.704Z,2330
2016-05-24T13:35:55.269Z,2155
2016-05-24T13:36:55.006Z,630
2016-05-24T13:37:55.321Z,1620
2016-05-24T13:38:55.090Z,1295
2016-05-24T13:39:55.217Z,1610
2016-05-24T13:40:55.142Z,1550
2016-05-24T13:41:55.285Z,1610
2016-05-24T13:42:55.287Z,2260
2016-05-24T13:43:54.868Z,1825
2016-05-24T13:44:54.948Z,720
2016-05-24T13:45:55.483Z,1125
2016-05-24T13:46:55.127Z,755
2016-05-24T13:47:55.082Z,865
2016-05-24T13:48:54.913Z,735
2016-05-24T13:49:54.900Z,1320
2016-05-24T13:50:55.059Z,1825
2016-05-24T13:51:55.077Z,1575
2016-05-24T13:52:54.939Z,1265
2016-05-24T13:53:55.145Z,690
2016-05-24T13:54:55.148Z,965
2016-05-24T13:55:55.057Z,800
2016-05-24T13:56:55.028Z,805
2016-05-24T13:57:54.858Z,510
2016-05-24T13:58:54.971Z,815
2016-05-24T13:59:58.786Z,725
2016-05-24T14:00:54.836Z,830
2016-05-24T14:01:55.277Z,1215
2016-05-24T14:03:11.013Z,750
2016-05-24T14:04:14.515Z,605
2016-05-24T14:04:54.972Z,600
2016-05-24T14:05:56.694Z,620
2016-05-24T14:06:59.540Z,1285
2016-05-24T14:07:59.043Z,1565
2016-05-24T14:09:19.935Z,1870
2016-05-24T14:09:54.813Z,2050
2016-05-24T14:10:54.894Z,2125